sensor_id;sensor_type;location;lat;lon;timestamp;P1;durP1;ratioP1;P2;durP2;ratioP2
70270;SDS011;57680;54.292;18.598;2023-02-13T00:00:28;7.07;;;2.07;;
70270;SDS011;57680;54.292;18.598;2023-02-13T00:02:54;9.93;;;2.63;;
70270;SDS011;57680;54.292;18.598;2023-02-13T00:05:19;7.27;;;2.67;;
70270;SDS011;57680;54.292;18.598;2023-02-13T00:07:44;7.67;;;2.23;;
70270;SDS011;57680;54.292;18.598;2023-02-13T00:10:10;9.03;;;2.70;;
70270;SDS011;57680;54.292;18.598;2023-02-13T00:12:35;7.07;;;2.47;;
70270;SDS011;57680;54.292;18.598;2023-02-13T00:15:00;7.97;;;2.72;;
70270;SDS011;57680;54.292;18.598;2023-02-13T00:17:26;8.23;;;2.07;;
70270;SDS011;57680;54.292;18.598;2023-02-13T00:19:51;6.10;;;2.20;;
70270;SDS011;57680;54.292;18.598;2023-02-13T00:22:17;6.47;;;1.57;;
70270;SDS011;57680;54.292;18.598;2023-02-13T00:24:42;8.43;;;2.17;;
70270;SDS011;57680;54.292;18.598;2023-02-13T00:27:08;8.97;;;1.60;;
70270;SDS011;57680;54.292;18.598;2023-02-13T00:29:33;5.00;;;1.43;;
70270;SDS011;57680;54.292;18.598;2023-02-13T00:31:58;7.50;;;2.00;;
70270;SDS011;57680;54.292;18.598;2023-02-13T00:34:24;7.07;;;1.40;;
70270;SDS011;57680;54.292;18.598;2023-02-13T00:36:49;8.40;;;1.73;;
70270;SDS011;57680;54.292;18.598;2023-02-13T00:39:14;5.73;;;1.83;;
70270;SDS011;57680;54.292;18.598;2023-02-13T00:41:39;7.67;;;1.30;;
70270;SDS011;57680;54.292;18.598;2023-02-13T00:44:05;8.05;;;1.60;;
70270;SDS011;57680;54.292;18.598;2023-02-13T00:46:30;9.13;;;2.27;;
70270;SDS011;57680;54.292;18.598;2023-02-13T00:48:55;7.33;;;1.80;;
70270;SDS011;57680;54.292;18.598;2023-02-13T00:51:21;4.70;;;1.40;;
70270;SDS011;57680;54.292;18.598;2023-02-13T00:53:46;6.13;;;1.33;;
70270;SDS011;57680;54.292;18.598;2023-02-13T00:56:11;9.17;;;2.60;;
70270;SDS011;57680;54.292;18.598;2023-02-13T00:58:37;5.93;;;1.70;;
70270;SDS011;57680;54.292;18.598;2023-02-13T01:01:02;6.32;;;1.40;;
70270;SDS011;57680;54.292;18.598;2023-02-13T01:03:27;8.07;;;1.90;;
70270;SDS011;57680;54.292;18.598;2023-02-13T01:05:54;8.67;;;2.47;;
70270;SDS011;57680;54.292;18.598;2023-02-13T01:08:20;6.80;;;1.98;;
70270;SDS011;57680;54.292;18.598;2023-02-13T01:10:46;6.97;;;1.77;;
70270;SDS011;57680;54.292;18.598;2023-02-13T01:13:13;10.77;;;2.08;;
70270;SDS011;57680;54.292;18.598;2023-02-13T01:15:40;6.43;;;1.90;;
70270;SDS011;57680;54.292;18.598;2023-02-13T01:18:06;7.20;;;2.00;;
70270;SDS011;57680;54.292;18.598;2023-02-13T01:20:31;5.03;;;1.55;;
70270;SDS011;57680;54.292;18.598;2023-02-13T01:22:57;5.77;;;1.67;;
70270;SDS011;57680;54.292;18.598;2023-02-13T01:25:22;5.73;;;1.73;;
70270;SDS011;57680;54.292;18.598;2023-02-13T01:27:48;5.45;;;1.40;;
70270;SDS011;57680;54.292;18.598;2023-02-13T01:30:14;6.68;;;1.70;;
70270;SDS011;57680;54.292;18.598;2023-02-13T01:32:40;6.72;;;2.00;;
70270;SDS011;57680;54.292;18.598;2023-02-13T01:35:07;7.87;;;1.33;;
70270;SDS011;57680;54.292;18.598;2023-02-13T01:37:34;7.60;;;1.75;;
70270;SDS011;57680;54.292;18.598;2023-02-13T01:39:59;4.93;;;1.50;;
70270;SDS011;57680;54.292;18.598;2023-02-13T01:42:26;5.15;;;1.35;;
70270;SDS011;57680;54.292;18.598;2023-02-13T01:44:57;3.55;;;1.50;;
70270;SDS011;57680;54.292;18.598;2023-02-13T01:47:39;5.63;;;1.17;;
70270;SDS011;57680;54.292;18.598;2023-02-13T01:52:56;5.90;;;1.33;;
70270;SDS011;57680;54.292;18.598;2023-02-13T01:55:26;4.70;;;1.23;;
70270;SDS011;57680;54.292;18.598;2023-02-13T01:57:54;6.82;;;1.65;;
70270;SDS011;57680;54.292;18.598;2023-02-13T02:00:24;6.17;;;1.60;;
70270;SDS011;57680;54.292;18.598;2023-02-13T02:02:50;6.22;;;1.40;;
70270;SDS011;57680;54.292;18.598;2023-02-13T02:05:19;21.60;;;2.50;;
70270;SDS011;57680;54.292;18.598;2023-02-13T02:07:47;7.22;;;1.52;;
70270;SDS011;57680;54.292;18.598;2023-02-13T02:10:16;6.43;;;1.88;;
70270;SDS011;57680;54.292;18.598;2023-02-13T02:15:16;6.40;;;1.80;;
70270;SDS011;57680;54.292;18.598;2023-02-13T02:17:41;8.48;;;2.22;;
70270;SDS011;57680;54.292;18.598;2023-02-13T02:20:20;8.80;;;2.53;;
70270;SDS011;57680;54.292;18.598;2023-02-13T02:37:13;7.97;;;2.03;;
70270;SDS011;57680;54.292;18.598;2023-02-13T02:42:48;6.65;;;2.10;;
70270;SDS011;57680;54.292;18.598;2023-02-13T02:48:25;6.95;;;2.17;;
70270;SDS011;57680;54.292;18.598;2023-02-13T02:51:01;7.30;;;2.25;;
70270;SDS011;57680;54.292;18.598;2023-02-13T02:56:26;5.93;;;1.95;;
70270;SDS011;57680;54.292;18.598;2023-02-13T02:59:11;8.60;;;2.77;;
70270;SDS011;57680;54.292;18.598;2023-02-13T03:01:40;6.63;;;2.30;;
70270;SDS011;57680;54.292;18.598;2023-02-13T03:04:13;7.68;;;2.10;;
70270;SDS011;57680;54.292;18.598;2023-02-13T03:06:48;8.82;;;2.22;;
70270;SDS011;57680;54.292;18.598;2023-02-13T03:09:20;9.45;;;2.83;;
70270;SDS011;57680;54.292;18.598;2023-02-13T03:11:50;11.43;;;2.73;;
70270;SDS011;57680;54.292;18.598;2023-02-13T03:14:19;7.78;;;2.20;;
70270;SDS011;57680;54.292;18.598;2023-02-13T03:16:45;7.75;;;2.13;;
70270;SDS011;57680;54.292;18.598;2023-02-13T03:19:12;8.02;;;2.63;;
70270;SDS011;57680;54.292;18.598;2023-02-13T03:22:13;9.02;;;2.75;;
70270;SDS011;57680;54.292;18.598;2023-02-13T03:24:59;7.97;;;2.20;;
70270;SDS011;57680;54.292;18.598;2023-02-13T03:27:41;6.57;;;2.63;;
70270;SDS011;57680;54.292;18.598;2023-02-13T03:33:26;7.50;;;2.63;;
70270;SDS011;57680;54.292;18.598;2023-02-13T03:36:06;7.40;;;2.60;;
70270;SDS011;57680;54.292;18.598;2023-02-13T03:42:03;7.82;;;2.45;;
70270;SDS011;57680;54.292;18.598;2023-02-13T03:44:38;8.07;;;2.97;;
70270;SDS011;57680;54.292;18.598;2023-02-13T03:47:13;8.23;;;2.80;;
70270;SDS011;57680;54.292;18.598;2023-02-13T03:49:43;7.00;;;2.20;;
70270;SDS011;57680;54.292;18.598;2023-02-13T03:52:23;8.45;;;3.00;;
70270;SDS011;57680;54.292;18.598;2023-02-13T03:54:55;6.47;;;2.40;;
70270;SDS011;57680;54.292;18.598;2023-02-13T03:57:24;6.80;;;1.95;;
70270;SDS011;57680;54.292;18.598;2023-02-13T03:59:52;6.90;;;2.25;;
70270;SDS011;57680;54.292;18.598;2023-02-13T04:02:21;6.20;;;2.20;;
70270;SDS011;57680;54.292;18.598;2023-02-13T04:05:15;8.52;;;3.28;;
70270;SDS011;57680;54.292;18.598;2023-02-13T04:07:44;7.00;;;2.08;;
70270;SDS011;57680;54.292;18.598;2023-02-13T04:10:10;8.60;;;2.57;;
70270;SDS011;57680;54.292;18.598;2023-02-13T04:15:31;7.47;;;3.22;;
70270;SDS011;57680;54.292;18.598;2023-02-13T04:18:07;7.68;;;2.78;;
70270;SDS011;57680;54.292;18.598;2023-02-13T04:20:39;7.43;;;2.60;;
70270;SDS011;57680;54.292;18.598;2023-02-13T04:23:08;11.40;;;3.00;;
70270;SDS011;57680;54.292;18.598;2023-02-13T04:25:35;7.50;;;2.70;;
70270;SDS011;57680;54.292;18.598;2023-02-13T04:28:02;7.13;;;2.47;;
70270;SDS011;57680;54.292;18.598;2023-02-13T04:30:27;7.80;;;2.33;;
70270;SDS011;57680;54.292;18.598;2023-02-13T04:32:53;8.55;;;2.30;;
70270;SDS011;57680;54.292;18.598;2023-02-13T04:35:18;7.57;;;2.40;;
70270;SDS011;57680;54.292;18.598;2023-02-13T04:37:44;8.87;;;3.03;;
70270;SDS011;57680;54.292;18.598;2023-02-13T04:40:09;7.03;;;2.33;;
70270;SDS011;57680;54.292;18.598;2023-02-13T04:42:35;8.57;;;2.80;;
70270;SDS011;57680;54.292;18.598;2023-02-13T04:45:00;7.33;;;2.60;;
70270;SDS011;57680;54.292;18.598;2023-02-13T04:47:26;7.97;;;2.80;;
70270;SDS011;57680;54.292;18.598;2023-02-13T04:49:51;7.83;;;2.83;;
70270;SDS011;57680;54.292;18.598;2023-02-13T04:52:16;9.33;;;2.90;;
70270;SDS011;57680;54.292;18.598;2023-02-13T04:54:42;7.72;;;2.60;;
70270;SDS011;57680;54.292;18.598;2023-02-13T04:57:07;7.47;;;2.30;;
70270;SDS011;57680;54.292;18.598;2023-02-13T04:59:32;6.40;;;2.40;;
70270;SDS011;57680;54.292;18.598;2023-02-13T05:01:58;7.53;;;2.60;;
70270;SDS011;57680;54.292;18.598;2023-02-13T05:04:23;7.33;;;2.30;;
70270;SDS011;57680;54.292;18.598;2023-02-13T05:06:49;6.75;;;2.58;;
70270;SDS011;57680;54.292;18.598;2023-02-13T05:09:15;6.63;;;2.40;;
70270;SDS011;57680;54.292;18.598;2023-02-13T05:11:40;6.78;;;2.40;;
70270;SDS011;57680;54.292;18.598;2023-02-13T05:14:05;6.70;;;2.20;;
70270;SDS011;57680;54.292;18.598;2023-02-13T05:16:31;7.17;;;2.00;;
70270;SDS011;57680;54.292;18.598;2023-02-13T05:18:56;6.07;;;2.10;;
70270;SDS011;57680;54.292;18.598;2023-02-13T05:21:21;5.83;;;1.80;;
70270;SDS011;57680;54.292;18.598;2023-02-13T05:23:47;7.33;;;2.10;;
70270;SDS011;57680;54.292;18.598;2023-02-13T05:26:12;8.70;;;2.23;;
70270;SDS011;57680;54.292;18.598;2023-02-13T05:28:37;5.93;;;2.00;;
70270;SDS011;57680;54.292;18.598;2023-02-13T05:31:02;6.78;;;2.53;;
70270;SDS011;57680;54.292;18.598;2023-02-13T05:33:28;6.70;;;2.40;;
70270;SDS011;57680;54.292;18.598;2023-02-13T05:35:53;6.00;;;2.17;;
70270;SDS011;57680;54.292;18.598;2023-02-13T05:38:19;6.27;;;2.13;;
70270;SDS011;57680;54.292;18.598;2023-02-13T05:40:44;11.27;;;2.50;;
70270;SDS011;57680;54.292;18.598;2023-02-13T05:43:09;8.90;;;2.23;;
70270;SDS011;57680;54.292;18.598;2023-02-13T05:45:34;5.50;;;2.10;;
70270;SDS011;57680;54.292;18.598;2023-02-13T05:48:00;4.90;;;2.00;;
70270;SDS011;57680;54.292;18.598;2023-02-13T05:50:25;6.53;;;2.20;;
70270;SDS011;57680;54.292;18.598;2023-02-13T05:52:50;5.40;;;2.00;;
70270;SDS011;57680;54.292;18.598;2023-02-13T05:55:16;6.80;;;2.20;;
70270;SDS011;57680;54.292;18.598;2023-02-13T05:57:41;5.20;;;1.70;;
70270;SDS011;57680;54.292;18.598;2023-02-13T06:00:06;6.37;;;2.10;;
70270;SDS011;57680;54.292;18.598;2023-02-13T06:02:32;5.20;;;2.30;;
70270;SDS011;57680;54.292;18.598;2023-02-13T06:04:57;5.73;;;1.90;;
70270;SDS011;57680;54.292;18.598;2023-02-13T06:07:23;7.07;;;2.60;;
70270;SDS011;57680;54.292;18.598;2023-02-13T06:09:48;7.80;;;3.20;;
70270;SDS011;57680;54.292;18.598;2023-02-13T06:12:13;6.47;;;2.13;;
70270;SDS011;57680;54.292;18.598;2023-02-13T06:14:39;6.27;;;1.90;;
70270;SDS011;57680;54.292;18.598;2023-02-13T06:17:04;5.20;;;2.20;;
70270;SDS011;57680;54.292;18.598;2023-02-13T06:19:29;5.43;;;1.93;;
70270;SDS011;57680;54.292;18.598;2023-02-13T06:21:55;6.63;;;2.30;;
70270;SDS011;57680;54.292;18.598;2023-02-13T06:24:20;6.97;;;2.43;;
70270;SDS011;57680;54.292;18.598;2023-02-13T06:26:45;7.23;;;2.47;;
70270;SDS011;57680;54.292;18.598;2023-02-13T06:29:11;6.77;;;2.43;;
70270;SDS011;57680;54.292;18.598;2023-02-13T06:31:36;6.93;;;2.07;;
70270;SDS011;57680;54.292;18.598;2023-02-13T06:34:01;6.75;;;2.30;;
70270;SDS011;57680;54.292;18.598;2023-02-13T06:36:27;7.10;;;1.80;;
70270;SDS011;57680;54.292;18.598;2023-02-13T06:38:52;6.87;;;2.10;;
70270;SDS011;57680;54.292;18.598;2023-02-13T06:41:18;6.33;;;2.20;;
70270;SDS011;57680;54.292;18.598;2023-02-13T06:43:43;8.93;;;2.40;;
70270;SDS011;57680;54.292;18.598;2023-02-13T06:46:08;6.53;;;1.97;;
70270;SDS011;57680;54.292;18.598;2023-02-13T06:48:34;6.90;;;2.47;;
70270;SDS011;57680;54.292;18.598;2023-02-13T06:50:59;7.53;;;2.10;;
70270;SDS011;57680;54.292;18.598;2023-02-13T06:53:25;8.23;;;2.40;;
70270;SDS011;57680;54.292;18.598;2023-02-13T06:55:51;7.53;;;2.40;;
70270;SDS011;57680;54.292;18.598;2023-02-13T06:58:17;6.70;;;2.58;;
70270;SDS011;57680;54.292;18.598;2023-02-13T07:00:43;9.73;;;2.60;;
70270;SDS011;57680;54.292;18.598;2023-02-13T07:03:09;6.77;;;2.07;;
70270;SDS011;57680;54.292;18.598;2023-02-13T07:05:34;7.77;;;2.37;;
70270;SDS011;57680;54.292;18.598;2023-02-13T07:07:59;8.40;;;2.40;;
70270;SDS011;57680;54.292;18.598;2023-02-13T07:10:25;7.20;;;2.00;;
70270;SDS011;57680;54.292;18.598;2023-02-13T07:12:50;7.53;;;2.40;;
70270;SDS011;57680;54.292;18.598;2023-02-13T07:15:16;7.17;;;2.53;;
70270;SDS011;57680;54.292;18.598;2023-02-13T07:17:41;6.70;;;1.90;;
70270;SDS011;57680;54.292;18.598;2023-02-13T07:20:07;10.53;;;2.63;;
70270;SDS011;57680;54.292;18.598;2023-02-13T07:22:32;9.90;;;1.93;;
70270;SDS011;57680;54.292;18.598;2023-02-13T07:24:58;6.67;;;2.10;;
70270;SDS011;57680;54.292;18.598;2023-02-13T07:27:24;6.93;;;2.10;;
70270;SDS011;57680;54.292;18.598;2023-02-13T07:29:50;5.40;;;2.22;;
70270;SDS011;57680;54.292;18.598;2023-02-13T07:32:16;7.27;;;1.83;;
70270;SDS011;57680;54.292;18.598;2023-02-13T07:34:41;7.47;;;1.67;;
70270;SDS011;57680;54.292;18.598;2023-02-13T07:37:06;8.37;;;1.93;;
70270;SDS011;57680;54.292;18.598;2023-02-13T07:39:31;5.50;;;2.00;;
70270;SDS011;57680;54.292;18.598;2023-02-13T07:41:57;7.38;;;1.60;;
70270;SDS011;57680;54.292;18.598;2023-02-13T07:44:22;8.17;;;2.10;;
70270;SDS011;57680;54.292;18.598;2023-02-13T07:46:48;7.77;;;1.97;;
70270;SDS011;57680;54.292;18.598;2023-02-13T07:49:13;6.53;;;2.23;;
70270;SDS011;57680;54.292;18.598;2023-02-13T07:51:38;8.27;;;2.30;;
70270;SDS011;57680;54.292;18.598;2023-02-13T07:54:03;6.40;;;1.77;;
70270;SDS011;57680;54.292;18.598;2023-02-13T07:56:29;7.80;;;1.90;;
70270;SDS011;57680;54.292;18.598;2023-02-13T07:58:54;6.70;;;1.90;;
70270;SDS011;57680;54.292;18.598;2023-02-13T08:01:20;7.73;;;2.17;;
70270;SDS011;57680;54.292;18.598;2023-02-13T08:03:48;6.87;;;1.87;;
70270;SDS011;57680;54.292;18.598;2023-02-13T08:06:15;6.43;;;2.22;;
70270;SDS011;57680;54.292;18.598;2023-02-13T08:08:41;8.18;;;2.05;;
70270;SDS011;57680;54.292;18.598;2023-02-13T08:11:07;8.23;;;2.40;;
70270;SDS011;57680;54.292;18.598;2023-02-13T08:13:43;5.82;;;1.92;;
70270;SDS011;57680;54.292;18.598;2023-02-13T08:16:09;7.83;;;2.40;;
70270;SDS011;57680;54.292;18.598;2023-02-13T08:18:34;9.37;;;2.40;;
70270;SDS011;57680;54.292;18.598;2023-02-13T08:21:03;5.70;;;2.00;;
70270;SDS011;57680;54.292;18.598;2023-02-13T08:23:28;7.28;;;2.03;;
70270;SDS011;57680;54.292;18.598;2023-02-13T08:25:54;8.20;;;2.40;;
70270;SDS011;57680;54.292;18.598;2023-02-13T08:28:19;8.30;;;2.40;;
70270;SDS011;57680;54.292;18.598;2023-02-13T08:30:44;8.48;;;2.90;;
70270;SDS011;57680;54.292;18.598;2023-02-13T08:33:10;7.47;;;2.50;;
70270;SDS011;57680;54.292;18.598;2023-02-13T08:35:35;5.33;;;1.50;;
70270;SDS011;57680;54.292;18.598;2023-02-13T08:38:01;7.27;;;2.13;;
70270;SDS011;57680;54.292;18.598;2023-02-13T08:40:27;6.15;;;1.98;;
70270;SDS011;57680;54.292;18.598;2023-02-13T08:42:58;6.27;;;1.67;;
70270;SDS011;57680;54.292;18.598;2023-02-13T08:45:24;7.28;;;2.20;;
70270;SDS011;57680;54.292;18.598;2023-02-13T08:47:49;5.10;;;1.83;;
70270;SDS011;57680;54.292;18.598;2023-02-13T08:50:14;7.93;;;1.73;;
70270;SDS011;57680;54.292;18.598;2023-02-13T08:52:40;5.80;;;2.07;;
70270;SDS011;57680;54.292;18.598;2023-02-13T08:55:05;6.93;;;1.93;;
70270;SDS011;57680;54.292;18.598;2023-02-13T08:57:30;6.13;;;1.73;;
70270;SDS011;57680;54.292;18.598;2023-02-13T08:59:56;5.37;;;1.70;;
70270;SDS011;57680;54.292;18.598;2023-02-13T09:02:21;6.07;;;1.13;;
70270;SDS011;57680;54.292;18.598;2023-02-13T09:04:46;8.37;;;1.60;;
70270;SDS011;57680;54.292;18.598;2023-02-13T09:07:11;6.50;;;2.00;;
70270;SDS011;57680;54.292;18.598;2023-02-13T09:09:37;6.47;;;1.53;;
70270;SDS011;57680;54.292;18.598;2023-02-13T09:12:02;7.70;;;1.70;;
70270;SDS011;57680;54.292;18.598;2023-02-13T09:14:28;7.80;;;1.80;;
70270;SDS011;57680;54.292;18.598;2023-02-13T09:16:53;8.33;;;2.00;;
70270;SDS011;57680;54.292;18.598;2023-02-13T09:19:18;4.33;;;1.60;;
70270;SDS011;57680;54.292;18.598;2023-02-13T09:21:44;7.83;;;2.00;;
70270;SDS011;57680;54.292;18.598;2023-02-13T09:24:09;9.03;;;1.53;;
70270;SDS011;57680;54.292;18.598;2023-02-13T09:26:35;7.40;;;1.67;;
70270;SDS011;57680;54.292;18.598;2023-02-13T09:29:00;10.05;;;1.85;;
70270;SDS011;57680;54.292;18.598;2023-02-13T09:31:25;5.07;;;1.50;;
70270;SDS011;57680;54.292;18.598;2023-02-13T09:33:51;7.83;;;1.93;;
70270;SDS011;57680;54.292;18.598;2023-02-13T09:36:17;6.10;;;1.70;;
70270;SDS011;57680;54.292;18.598;2023-02-13T09:38:45;6.20;;;1.42;;
70270;SDS011;57680;54.292;18.598;2023-02-13T09:41:13;6.10;;;1.75;;
70270;SDS011;57680;54.292;18.598;2023-02-13T09:43:51;6.05;;;1.60;;
70270;SDS011;57680;54.292;18.598;2023-02-13T09:46:24;5.80;;;2.20;;
70270;SDS011;57680;54.292;18.598;2023-02-13T09:48:54;6.68;;;1.88;;
70270;SDS011;57680;54.292;18.598;2023-02-13T09:51:21;5.88;;;1.63;;
70270;SDS011;57680;54.292;18.598;2023-02-13T09:53:55;5.97;;;1.70;;
70270;SDS011;57680;54.292;18.598;2023-02-13T09:56:38;7.75;;;1.70;;
70270;SDS011;57680;54.292;18.598;2023-02-13T09:59:15;6.87;;;1.67;;
70270;SDS011;57680;54.292;18.598;2023-02-13T10:01:43;10.52;;;2.10;;
70270;SDS011;57680;54.292;18.598;2023-02-13T10:07:28;9.05;;;1.90;;
70270;SDS011;57680;54.292;18.598;2023-02-13T10:10:29;5.50;;;1.60;;
70270;SDS011;57680;54.292;18.598;2023-02-13T10:13:06;7.13;;;1.73;;
70270;SDS011;57680;54.292;18.598;2023-02-13T10:19:28;4.80;;;1.25;;
70270;SDS011;57680;54.292;18.598;2023-02-13T10:21:37;5.97;;;1.48;;
70270;SDS011;57680;54.292;18.598;2023-02-13T10:24:10;7.03;;;1.73;;
70270;SDS011;57680;54.292;18.598;2023-02-13T10:26:42;6.73;;;1.90;;
70270;SDS011;57680;54.292;18.598;2023-02-13T10:31:47;5.47;;;1.17;;
70270;SDS011;57680;54.292;18.598;2023-02-13T10:34:14;4.57;;;1.33;;
70270;SDS011;57680;54.292;18.598;2023-02-13T10:36:49;7.47;;;1.63;;
70270;SDS011;57680;54.292;18.598;2023-02-13T10:39:27;8.13;;;1.97;;
70270;SDS011;57680;54.292;18.598;2023-02-13T10:41:59;5.95;;;1.35;;
70270;SDS011;57680;54.292;18.598;2023-02-13T10:47:56;6.53;;;1.23;;
70270;SDS011;57680;54.292;18.598;2023-02-13T10:50:36;7.03;;;1.30;;
70270;SDS011;57680;54.292;18.598;2023-02-13T11:01:07;7.67;;;1.20;;
70270;SDS011;57680;54.292;18.598;2023-02-13T11:03:38;4.88;;;1.48;;
70270;SDS011;57680;54.292;18.598;2023-02-13T11:06:04;6.77;;;1.50;;
70270;SDS011;57680;54.292;18.598;2023-02-13T11:08:39;3.42;;;1.15;;
70270;SDS011;57680;54.292;18.598;2023-02-13T11:14:43;4.70;;;1.40;;
70270;SDS011;57680;54.292;18.598;2023-02-13T11:19:21;6.77;;;1.80;;
70270;SDS011;57680;54.292;18.598;2023-02-13T11:21:48;7.65;;;1.90;;
70270;SDS011;57680;54.292;18.598;2023-02-13T11:24:20;4.55;;;1.23;;
70270;SDS011;57680;54.292;18.598;2023-02-13T11:26:51;4.45;;;1.50;;
70270;SDS011;57680;54.292;18.598;2023-02-13T11:32:00;6.13;;;1.30;;
70270;SDS011;57680;54.292;18.598;2023-02-13T11:34:32;4.72;;;1.15;;
70270;SDS011;57680;54.292;18.598;2023-02-13T11:39:35;4.50;;;1.50;;
70270;SDS011;57680;54.292;18.598;2023-02-13T11:42:01;5.97;;;1.00;;
70270;SDS011;57680;54.292;18.598;2023-02-13T11:44:27;6.13;;;1.57;;
70270;SDS011;57680;54.292;18.598;2023-02-13T11:46:55;5.97;;;1.58;;
70270;SDS011;57680;54.292;18.598;2023-02-13T11:49:27;8.93;;;1.45;;
70270;SDS011;57680;54.292;18.598;2023-02-13T11:51:55;5.90;;;1.50;;
70270;SDS011;57680;54.292;18.598;2023-02-13T11:56:54;6.07;;;1.80;;
70270;SDS011;57680;54.292;18.598;2023-02-13T11:59:22;5.82;;;1.73;;
70270;SDS011;57680;54.292;18.598;2023-02-13T12:04:27;4.83;;;1.30;;
70270;SDS011;57680;54.292;18.598;2023-02-13T12:06:57;5.17;;;1.67;;
70270;SDS011;57680;54.292;18.598;2023-02-13T12:09:23;3.80;;;1.30;;
70270;SDS011;57680;54.292;18.598;2023-02-13T12:11:50;6.30;;;1.50;;
70270;SDS011;57680;54.292;18.598;2023-02-13T12:14:21;4.17;;;1.07;;
70270;SDS011;57680;54.292;18.598;2023-02-13T12:16:49;7.20;;;1.92;;
70270;SDS011;57680;54.292;18.598;2023-02-13T12:19:21;5.38;;;1.38;;
70270;SDS011;57680;54.292;18.598;2023-02-13T12:25:24;7.15;;;1.70;;
70270;SDS011;57680;54.292;18.598;2023-02-13T12:28:14;7.17;;;1.87;;
70270;SDS011;57680;54.292;18.598;2023-02-13T12:41:12;4.87;;;1.37;;
70270;SDS011;57680;54.292;18.598;2023-02-13T12:51:43;3.40;;;1.08;;
70270;SDS011;57680;54.292;18.598;2023-02-13T12:54:17;6.28;;;1.30;;
70270;SDS011;57680;54.292;18.598;2023-02-13T13:10:25;5.77;;;1.40;;
70270;SDS011;57680;54.292;18.598;2023-02-13T13:23:10;5.38;;;1.58;;
70270;SDS011;57680;54.292;18.598;2023-02-13T13:26:07;3.10;;;1.10;;
70270;SDS011;57680;54.292;18.598;2023-02-13T13:28:40;5.77;;;2.03;;
70270;SDS011;57680;54.292;18.598;2023-02-13T13:31:07;6.43;;;1.80;;
70270;SDS011;57680;54.292;18.598;2023-02-13T13:33:34;4.40;;;1.50;;
70270;SDS011;57680;54.292;18.598;2023-02-13T13:36:07;5.50;;;1.70;;
70270;SDS011;57680;54.292;18.598;2023-02-13T13:42:10;3.87;;;1.20;;
70270;SDS011;57680;54.292;18.598;2023-02-13T13:44:46;4.43;;;1.35;;
70270;SDS011;57680;54.292;18.598;2023-02-13T13:50:20;6.47;;;1.65;;
70270;SDS011;57680;54.292;18.598;2023-02-13T13:58:23;9.73;;;1.90;;
70270;SDS011;57680;54.292;18.598;2023-02-13T14:01:25;5.55;;;1.90;;
70270;SDS011;57680;54.292;18.598;2023-02-13T14:04:35;5.47;;;1.90;;
70270;SDS011;57680;54.292;18.598;2023-02-13T14:11:51;5.93;;;1.60;;
70270;SDS011;57680;54.292;18.598;2023-02-13T14:16:51;4.35;;;1.88;;
70270;SDS011;57680;54.292;18.598;2023-02-13T14:19:23;5.93;;;1.67;;
70270;SDS011;57680;54.292;18.598;2023-02-13T14:21:50;8.53;;;2.30;;
70270;SDS011;57680;54.292;18.598;2023-02-13T14:24:17;5.65;;;1.17;;
70270;SDS011;57680;54.292;18.598;2023-02-13T14:26:54;6.03;;;1.70;;
70270;SDS011;57680;54.292;18.598;2023-02-13T14:29:21;4.97;;;1.50;;
70270;SDS011;57680;54.292;18.598;2023-02-13T14:31:56;3.67;;;1.40;;
70270;SDS011;57680;54.292;18.598;2023-02-13T14:34:27;5.40;;;1.88;;
70270;SDS011;57680;54.292;18.598;2023-02-13T14:39:32;4.20;;;1.77;;
70270;SDS011;57680;54.292;18.598;2023-02-13T14:41:59;6.68;;;1.60;;
70270;SDS011;57680;54.292;18.598;2023-02-13T14:44:37;4.93;;;1.60;;
70270;SDS011;57680;54.292;18.598;2023-02-13T14:47:22;5.78;;;1.73;;
70270;SDS011;57680;54.292;18.598;2023-02-13T14:49:53;6.07;;;1.58;;
70270;SDS011;57680;54.292;18.598;2023-02-13T14:52:24;5.93;;;1.33;;
70270;SDS011;57680;54.292;18.598;2023-02-13T14:54:54;7.72;;;1.75;;
70270;SDS011;57680;54.292;18.598;2023-02-13T14:57:27;3.73;;;1.20;;
70270;SDS011;57680;54.292;18.598;2023-02-13T15:00:03;6.85;;;1.85;;
70270;SDS011;57680;54.292;18.598;2023-02-13T15:02:34;6.05;;;1.50;;
70270;SDS011;57680;54.292;18.598;2023-02-13T15:05:06;5.53;;;1.50;;
70270;SDS011;57680;54.292;18.598;2023-02-13T15:07:37;5.50;;;1.52;;
70270;SDS011;57680;54.292;18.598;2023-02-13T15:10:32;6.50;;;1.80;;
70270;SDS011;57680;54.292;18.598;2023-02-13T15:13:11;7.07;;;2.10;;
70270;SDS011;57680;54.292;18.598;2023-02-13T15:15:41;7.07;;;2.00;;
70270;SDS011;57680;54.292;18.598;2023-02-13T15:18:07;6.93;;;1.87;;
70270;SDS011;57680;54.292;18.598;2023-02-13T15:20:35;7.47;;;1.63;;
70270;SDS011;57680;54.292;18.598;2023-02-13T15:23:03;6.35;;;1.83;;
70270;SDS011;57680;54.292;18.598;2023-02-13T15:25:36;5.97;;;2.50;;
70270;SDS011;57680;54.292;18.598;2023-02-13T15:28:04;5.65;;;1.58;;
70270;SDS011;57680;54.292;18.598;2023-02-13T15:30:35;6.47;;;1.80;;
70270;SDS011;57680;54.292;18.598;2023-02-13T15:33:03;4.60;;;1.38;;
70270;SDS011;57680;54.292;18.598;2023-02-13T15:35:30;5.80;;;2.17;;
70270;SDS011;57680;54.292;18.598;2023-02-13T15:37:57;9.53;;;2.30;;
70270;SDS011;57680;54.292;18.598;2023-02-13T15:40:25;5.03;;;1.88;;
70270;SDS011;57680;54.292;18.598;2023-02-13T15:42:53;6.65;;;2.53;;
70270;SDS011;57680;54.292;18.598;2023-02-13T15:45:20;5.10;;;1.77;;
70270;SDS011;57680;54.292;18.598;2023-02-13T15:47:47;5.20;;;1.88;;
70270;SDS011;57680;54.292;18.598;2023-02-13T15:50:16;5.20;;;2.00;;
70270;SDS011;57680;54.292;18.598;2023-02-13T15:52:44;6.10;;;2.35;;
70270;SDS011;57680;54.292;18.598;2023-02-13T15:55:24;4.93;;;2.20;;
70270;SDS011;57680;54.292;18.598;2023-02-13T15:57:52;6.35;;;1.73;;
70270;SDS011;57680;54.292;18.598;2023-02-13T16:00:24;4.33;;;1.50;;
70270;SDS011;57680;54.292;18.598;2023-02-13T16:02:52;5.13;;;2.03;;
70270;SDS011;57680;54.292;18.598;2023-02-13T16:05:20;5.65;;;2.10;;
70270;SDS011;57680;54.292;18.598;2023-02-13T16:07:55;7.25;;;1.77;;
70270;SDS011;57680;54.292;18.598;2023-02-13T16:12:50;5.15;;;1.73;;
70270;SDS011;57680;54.292;18.598;2023-02-13T16:15:17;4.88;;;1.90;;
70270;SDS011;57680;54.292;18.598;2023-02-13T16:17:45;6.57;;;2.30;;
70270;SDS011;57680;54.292;18.598;2023-02-13T16:22:44;6.43;;;2.47;;
70270;SDS011;57680;54.292;18.598;2023-02-13T16:27:44;6.80;;;1.93;;
70270;SDS011;57680;54.292;18.598;2023-02-13T16:31:00;5.90;;;2.03;;
70270;SDS011;57680;54.292;18.598;2023-02-13T16:35:39;6.75;;;2.45;;
70270;SDS011;57680;54.292;18.598;2023-02-13T16:40:58;5.83;;;2.43;;
70270;SDS011;57680;54.292;18.598;2023-02-13T16:46:33;7.68;;;2.40;;
70270;SDS011;57680;54.292;18.598;2023-02-13T16:51:37;7.80;;;2.72;;
70270;SDS011;57680;54.292;18.598;2023-02-13T16:56:55;10.13;;;2.85;;
70270;SDS011;57680;54.292;18.598;2023-02-13T17:02:01;7.13;;;2.58;;
70270;SDS011;57680;54.292;18.598;2023-02-13T17:04:34;8.77;;;2.95;;
70270;SDS011;57680;54.292;18.598;2023-02-13T17:07:00;10.07;;;3.17;;
70270;SDS011;57680;54.292;18.598;2023-02-13T17:09:25;8.97;;;3.03;;
70270;SDS011;57680;54.292;18.598;2023-02-13T17:11:51;9.27;;;3.40;;
70270;SDS011;57680;54.292;18.598;2023-02-13T17:14:17;9.85;;;3.33;;
70270;SDS011;57680;54.292;18.598;2023-02-13T17:16:43;9.93;;;3.27;;
70270;SDS011;57680;54.292;18.598;2023-02-13T17:19:09;15.35;;;4.63;;
70270;SDS011;57680;54.292;18.598;2023-02-13T17:21:34;20.10;;;6.13;;
70270;SDS011;57680;54.292;18.598;2023-02-13T17:24:01;18.63;;;6.07;;
70270;SDS011;57680;54.292;18.598;2023-02-13T17:26:26;11.30;;;3.63;;
70270;SDS011;57680;54.292;18.598;2023-02-13T17:28:52;11.80;;;3.60;;